Mt Bomar Mars — 9HCM9 — position and weather

sailwx.info

Track history (hours):
 
Tides and Currents Weather Stations Pressure Air Temp Water Temp Dewpoint Dewpoint Depression Visibility Wind Speed Wind Dir Waves Ship Positions

Mt Bomar Mars

Last reported at 2015-Jul-02 22:31 UTC. Time now 2015-Jul-02 23:11 UTC.
Position N 51°53' E 004°17'.

Length 107 m; draft 5.2 m.

Type: Ship. MMSI: 256784000.

Date/timePositionNaut miles runAvg speedWind from/ knotsBaromVisibWave heightAir tempDewpointWater temp
2015-Jul-02 22:31N 51°53' E 004°17'0 0.0
2015-Jul-02 21:25N 51°53' E 004°17'0 0.0
2015-Jul-02 20:28N 51°53' E 004°17'0 0.0
2015-Jul-02 19:31N 51°53' E 004°17'0 0.0
2015-Jul-02 18:19N 51°53' E 004°17'0 0.0
2015-Jul-02 17:31N 51°53' E 004°17'0 0.0
2015-Jul-02 16:31N 51°53' E 004°17'0 0.0
2015-Jul-02 15:25N 51°53' E 004°17'0 0.0
2015-Jul-02 14:28N 51°53' E 004°17'0 0.0
2015-Jul-02 13:25N 51°53' E 004°17'0 0.0
2015-Jul-02 12:31N 51°53' E 004°17'0 0.0
2015-Jul-02 11:22N 51°53' E 004°17'0 0.0
2015-Jul-02 10:19N 51°53' E 004°17'0 0.0
2015-Jul-02 09:31N 51°53' E 004°17'0 0.0
2015-Jul-02 08:31N 51°53' E 004°17'0 0.0
2015-Jul-02 07:31N 51°53' E 004°17'0 0.0
2015-Jul-02 06:31N 51°53' E 004°17'0 0.0
2015-Jul-02 05:25N 51°53' E 004°17'1 1.1
2015-Jul-02 04:33N 51°53' E 004°18'9 9.0
2015-Jul-02 03:33N 51°59' E 004°06'1111.2
2015-Jul-02 02:33N 52°01' E 003°48'1212.1
2015-Jul-02 01:33N 51°56' E 003°30'5811.7
2015-Jul-01 20:32N 51°24' E 002°11'1010.2
2015-Jul-01 19:33N 51°15' E 002°05'9 9.3
2015-Jul-01 18:33N 51°10' E 001°52'9 9.3
2015-Jul-01 17:34N 51°04' E 001°41'1010.1
2015-Jul-01 16:33N 50°57' E 001°30'10411.5
2015-Jul-01 07:29N 50°09' W 000°56'3414.4
2015-Jul-01 05:06N 50°01' W 001°48'4910.7
2015-Jul-01 00:33N 49°49' W 003°01'1010.1
2015-Jun-30 23:33N 49°48' W 003°16'120 7.8
2015-Jun-30 08:09N 50°27' W 006°12'6 9.2
2015-Jun-30 07:30N 50°32' W 006°19'9 9.4
2015-Jun-30 06:33N 50°39' W 006°28'12 9.2
2015-Jun-30 05:12N 50°49' W 006°39'7 9.3
2015-Jun-30 04:27N 50°54' W 006°46'8 9.2
2015-Jun-30 03:33N 51°00' W 006°55'9 9.2
2015-Jun-30 02:34N 51°07' W 007°05'10 9.2
2015-Jun-30 01:31N 51°13' W 007°16'12 9.3
2015-Jun-30 00:12N 51°22' W 007°30'6 9.1
2015-Jun-29 23:33N 51°26' W 007°37'9 9.1
2015-Jun-29 22:34N 51°33' W 007°47'8 7.6
2015-Jun-29 21:34N 51°38' W 007°55'1 1.3
2015-Jun-29 20:34N 51°37' W 007°57'1 1.3
2015-Jun-29 19:33N 51°36' W 007°58'1 1.3
2015-Jun-29 18:34N 51°36' W 007°60'8 8.1
2015-Jun-29 17:34N 51°41' W 008°09'9 8.6
2015-Jun-29 16:34N 51°49' W 008°16'2 1.5
2015-Jun-29 15:32N 51°50' W 008°16'0 0.0
2015-Jun-29 14:32N 51°50' W 008°16'0 0.0
2015-Jun-29 13:32N 51°50' W 008°16'0 0.0
2015-Jun-29 12:29N 51°50' W 008°16'0 0.0
2015-Jun-29 11:32N 51°50' W 008°16'0 0.0
2015-Jun-29 10:29N 51°50' W 008°16'0 0.0
2015-Jun-29 09:32N 51°50' W 008°16'0 0.0
2015-Jun-29 08:32N 51°50' W 008°16'0 0.0
2015-Jun-29 07:32N 51°50' W 008°16'0 0.0
2015-Jun-29 06:32N 51°50' W 008°16'0 0.0
2015-Jun-29 05:32N 51°50' W 008°16'0 0.0
2015-Jun-29 04:32N 51°50' W 008°16'0 0.0
2015-Jun-29 03:32N 51°50' W 008°16'1 0.6
2015-Jun-29 02:33N 51°50' W 008°16'3 2.7
2015-Jun-29 01:28N 51°47' W 008°16'0 0.0
2015-Jun-29 00:28N 51°47' W 008°16'0 0.0
2015-Jun-28 23:31N 51°47' W 008°16'0 0.0
2015-Jun-28 22:31N 51°47' W 008°16'0 0.1
2015-Jun-28 21:31N 51°47' W 008°16'0 0.1
2015-Jun-28 20:31N 51°47' W 008°16'0 0.0
2015-Jun-28 19:31N 51°47' W 008°16'0 0.0
2015-Jun-28 18:31N 51°47' W 008°16'0 0.1
2015-Jun-28 17:31N 51°47' W 008°16'0 0.0
2015-Jun-28 16:31N 51°47' W 008°16'0 0.0
2015-Jun-28 15:31N 51°47' W 008°16'0 0.0
2015-Jun-28 14:31N 51°47' W 008°16'0 0.0
2015-Jun-28 13:31N 51°47' W 008°16'0 0.0
2015-Jun-28 12:31N 51°47' W 008°16'0 0.0
2015-Jun-28 11:31N 51°47' W 008°16'0 0.0
2015-Jun-28 10:31N 51°47' W 008°16'0 0.0
2015-Jun-28 09:31N 51°47' W 008°16'0 0.0
2015-Jun-28 08:31N 51°47' W 008°16'0 0.1
2015-Jun-28 07:31N 51°47' W 008°16'0 0.1
2015-Jun-28 06:31N 51°47' W 008°16'0 0.1
2015-Jun-28 05:31N 51°47' W 008°16'0 0.0
2015-Jun-28 04:31N 51°47' W 008°16'0 0.0
2015-Jun-28 03:31N 51°47' W 008°16'0 0.0
2015-Jun-28 02:31N 51°47' W 008°16'0 0.0
2015-Jun-28 01:31N 51°47' W 008°16'0 0.0
2015-Jun-28 00:31N 51°47' W 008°16'0 0.0
2015-Jun-27 23:31N 51°47' W 008°16'0 0.0
2015-Jun-27 22:31N 51°47' W 008°16'0 0.0
2015-Jun-27 21:31N 51°47' W 008°16'0 0.0
2015-Jun-27 20:28N 51°47' W 008°16'0 0.0
2015-Jun-27 19:28N 51°47' W 008°16'0 0.0
2015-Jun-27 18:31N 51°47' W 008°16'0 0.0
2015-Jun-27 17:28N 51°47' W 008°16'4 4.0
2015-Jun-27 16:34N 51°43' W 008°15'1111.5
2015-Jun-27 15:34N 51°32' W 008°14'1211.5
2015-Jun-27 14:33N 51°20' W 008°12'1211.4
2015-Jun-27 13:32N 51°09' W 008°10'1211.3
2015-Jun-27 12:27N 50°56' W 008°11'39511.6
2015-Jun-26 02:18N 44°21' W 008°23'  
Track history (hours):
 
Tides and Currents Weather Stations Pressure Air Temp Water Temp Dewpoint Dewpoint Depression Visibility Wind Speed Wind Dir Waves Ship Positions

Mt Bomar Mars

Last reported at 2015-Jul-02 22:31 UTC. Time now 2015-Jul-02 23:11 UTC.
Position N 51°53' E 004°17'.

Length 107 m; draft 5.2 m.

Type: Ship. MMSI: 256784000.

Date/timePositionNaut miles runAvg speedWind from/ knotsBaromVisibWave heightAir tempDewpointWater temp
2015-Jul-02 22:31N 51°53' E 004°17'0 0.0
2015-Jul-02 21:25N 51°53' E 004°17'0 0.0
2015-Jul-02 20:28N 51°53' E 004°17'0 0.0
2015-Jul-02 19:31N 51°53' E 004°17'0 0.0
2015-Jul-02 18:19N 51°53' E 004°17'0 0.0
2015-Jul-02 17:31N 51°53' E 004°17'0 0.0
2015-Jul-02 16:31N 51°53' E 004°17'0 0.0
2015-Jul-02 15:25N 51°53' E 004°17'0 0.0
2015-Jul-02 14:28N 51°53' E 004°17'0 0.0
2015-Jul-02 13:25N 51°53' E 004°17'0 0.0
2015-Jul-02 12:31N 51°53' E 004°17'0 0.0
2015-Jul-02 11:22N 51°53' E 004°17'0 0.0
2015-Jul-02 10:19N 51°53' E 004°17'0 0.0
2015-Jul-02 09:31N 51°53' E 004°17'0 0.0
2015-Jul-02 08:31N 51°53' E 004°17'0 0.0
2015-Jul-02 07:31N 51°53' E 004°17'0 0.0
2015-Jul-02 06:31N 51°53' E 004°17'0 0.0
2015-Jul-02 05:25N 51°53' E 004°17'1 1.1
2015-Jul-02 04:33N 51°53' E 004°18'9 9.0
2015-Jul-02 03:33N 51°59' E 004°06'1111.2
2015-Jul-02 02:33N 52°01' E 003°48'1212.1
2015-Jul-02 01:33N 51°56' E 003°30'5811.7
2015-Jul-01 20:32N 51°24' E 002°11'1010.2
2015-Jul-01 19:33N 51°15' E 002°05'9 9.3
2015-Jul-01 18:33N 51°10' E 001°52'9 9.3
2015-Jul-01 17:34N 51°04' E 001°41'1010.1
2015-Jul-01 16:33N 50°57' E 001°30'10411.5
2015-Jul-01 07:29N 50°09' W 000°56'3414.4
2015-Jul-01 05:06N 50°01' W 001°48'4910.7
2015-Jul-01 00:33N 49°49' W 003°01'1010.1
2015-Jun-30 23:33N 49°48' W 003°16'120 7.8
2015-Jun-30 08:09N 50°27' W 006°12'6 9.2
2015-Jun-30 07:30N 50°32' W 006°19'9 9.4
2015-Jun-30 06:33N 50°39' W 006°28'12 9.2
2015-Jun-30 05:12N 50°49' W 006°39'7 9.3
2015-Jun-30 04:27N 50°54' W 006°46'8 9.2
2015-Jun-30 03:33N 51°00' W 006°55'9 9.2
2015-Jun-30 02:34N 51°07' W 007°05'10 9.2
2015-Jun-30 01:31N 51°13' W 007°16'12 9.3
2015-Jun-30 00:12N 51°22' W 007°30'6 9.1
2015-Jun-29 23:33N 51°26' W 007°37'9 9.1
2015-Jun-29 22:34N 51°33' W 007°47'8 7.6
2015-Jun-29 21:34N 51°38' W 007°55'1 1.3
2015-Jun-29 20:34N 51°37' W 007°57'1 1.3
2015-Jun-29 19:33N 51°36' W 007°58'1 1.3
2015-Jun-29 18:34N 51°36' W 007°60'8 8.1
2015-Jun-29 17:34N 51°41' W 008°09'9 8.6
2015-Jun-29 16:34N 51°49' W 008°16'2 1.5
2015-Jun-29 15:32N 51°50' W 008°16'0 0.0
2015-Jun-29 14:32N 51°50' W 008°16'0 0.0
2015-Jun-29 13:32N 51°50' W 008°16'0 0.0
2015-Jun-29 12:29N 51°50' W 008°16'0 0.0
2015-Jun-29 11:32N 51°50' W 008°16'0 0.0
2015-Jun-29 10:29N 51°50' W 008°16'0 0.0
2015-Jun-29 09:32N 51°50' W 008°16'0 0.0
2015-Jun-29 08:32N 51°50' W 008°16'0 0.0
2015-Jun-29 07:32N 51°50' W 008°16'0 0.0
2015-Jun-29 06:32N 51°50' W 008°16'0 0.0
2015-Jun-29 05:32N 51°50' W 008°16'0 0.0
2015-Jun-29 04:32N 51°50' W 008°16'0 0.0
2015-Jun-29 03:32N 51°50' W 008°16'1 0.6
2015-Jun-29 02:33N 51°50' W 008°16'3 2.7
2015-Jun-29 01:28N 51°47' W 008°16'0 0.0
2015-Jun-29 00:28N 51°47' W 008°16'0 0.0
2015-Jun-28 23:31N 51°47' W 008°16'0 0.0
2015-Jun-28 22:31N 51°47' W 008°16'0 0.1
2015-Jun-28 21:31N 51°47' W 008°16'0 0.1
2015-Jun-28 20:31N 51°47' W 008°16'0 0.0
2015-Jun-28 19:31N 51°47' W 008°16'0 0.0
2015-Jun-28 18:31N 51°47' W 008°16'0 0.1
2015-Jun-28 17:31N 51°47' W 008°16'0 0.0
2015-Jun-28 16:31N 51°47' W 008°16'0 0.0
2015-Jun-28 15:31N 51°47' W 008°16'0 0.0
2015-Jun-28 14:31N 51°47' W 008°16'0 0.0
2015-Jun-28 13:31N 51°47' W 008°16'0 0.0
2015-Jun-28 12:31N 51°47' W 008°16'0 0.0
2015-Jun-28 11:31N 51°47' W 008°16'0 0.0
2015-Jun-28 10:31N 51°47' W 008°16'0 0.0
2015-Jun-28 09:31N 51°47' W 008°16'0 0.0
2015-Jun-28 08:31N 51°47' W 008°16'0 0.1
2015-Jun-28 07:31N 51°47' W 008°16'0 0.1
2015-Jun-28 06:31N 51°47' W 008°16'0 0.1
2015-Jun-28 05:31N 51°47' W 008°16'0 0.0
2015-Jun-28 04:31N 51°47' W 008°16'0 0.0
2015-Jun-28 03:31N 51°47' W 008°16'0 0.0
2015-Jun-28 02:31N 51°47' W 008°16'0 0.0
2015-Jun-28 01:31N 51°47' W 008°16'0 0.0
2015-Jun-28 00:31N 51°47' W 008°16'0 0.0
2015-Jun-27 23:31N 51°47' W 008°16'0 0.0
2015-Jun-27 22:31N 51°47' W 008°16'0 0.0
2015-Jun-27 21:31N 51°47' W 008°16'0 0.0
2015-Jun-27 20:28N 51°47' W 008°16'0 0.0
2015-Jun-27 19:28N 51°47' W 008°16'0 0.0
2015-Jun-27 18:31N 51°47' W 008°16'0 0.0
2015-Jun-27 17:28N 51°47' W 008°16'4 4.0
2015-Jun-27 16:34N 51°43' W 008°15'1111.5
2015-Jun-27 15:34N 51°32' W 008°14'1211.5
2015-Jun-27 14:33N 51°20' W 008°12'1211.4
2015-Jun-27 13:32N 51°09' W 008°10'1211.3
2015-Jun-27 12:27N 50°56' W 008°11'39511.6
2015-Jun-26 02:18N 44°21' W 008°23'  

Dump ship's entire track history